sensor_id;sensor_type;location;lat;lon;timestamp;temperature;humidity
3262;DHT22;1643;47.746;9.000;2023-04-03T08:17:30;8.20;96.40
3262;DHT22;1643;47.746;9.000;2023-04-03T08:19:56;8.20;96.50
3262;DHT22;1643;47.746;9.000;2023-04-03T08:22:22;8.00;96.60
3262;DHT22;1643;47.746;9.000;2023-04-03T08:24:47;8.00;96.70
3262;DHT22;1643;47.746;9.000;2023-04-03T08:27:13;8.20;96.80
3262;DHT22;1643;47.746;9.000;2023-04-03T08:29:38;8.20;96.80
3262;DHT22;1643;47.746;9.000;2023-04-03T08:32:05;8.20;96.90
3262;DHT22;1643;47.746;9.000;2023-04-03T08:34:31;8.30;96.90
3262;DHT22;1643;47.746;9.000;2023-04-03T08:37:03;8.40;96.80
3262;DHT22;1643;47.746;9.000;2023-04-03T08:39:28;8.40;96.80
3262;DHT22;1643;47.746;9.000;2023-04-03T08:41:58;8.30;97.00
3262;DHT22;1643;47.746;9.000;2023-04-03T08:49:43;8.40;97.00
3262;DHT22;1643;47.746;9.000;2023-04-03T08:52:17;8.50;97.00
3262;DHT22;1643;47.746;9.000;2023-04-03T08:54:50;8.60;96.90
3262;DHT22;1643;47.746;9.000;2023-04-03T08:57:20;8.60;96.90
3262;DHT22;1643;47.746;9.000;2023-04-03T08:59:49;8.60;96.90
3262;DHT22;1643;47.746;9.000;2023-04-03T09:02:33;8.60;96.80
3262;DHT22;1643;47.746;9.000;2023-04-03T09:05:01;8.40;97.00
3262;DHT22;1643;47.746;9.000;2023-04-03T09:08:09;8.50;97.10
3262;DHT22;1643;47.746;9.000;2023-04-03T09:10:38;8.70;97.10
3262;DHT22;1643;47.746;9.000;2023-04-03T09:13:06;8.60;97.10
3262;DHT22;1643;47.746;9.000;2023-04-03T09:15:33;8.60;97.00
3262;DHT22;1643;47.746;9.000;2023-04-03T09:18:04;8.70;97.10
3262;DHT22;1643;47.746;9.000;2023-04-03T09:23:13;8.80;97.10
3262;DHT22;1643;47.746;9.000;2023-04-03T09:25:41;8.80;97.20
3262;DHT22;1643;47.746;9.000;2023-04-03T09:28:07;8.80;97.20
3262;DHT22;1643;47.746;9.000;2023-04-03T09:30:36;8.80;97.20
3262;DHT22;1643;47.746;9.000;2023-04-03T09:33:03;8.80;97.20
3262;DHT22;1643;47.746;9.000;2023-04-03T09:35:31;8.80;97.20
3262;DHT22;1643;47.746;9.000;2023-04-03T09:38:00;8.80;97.10
3262;DHT22;1643;47.746;9.000;2023-04-03T09:42:56;8.70;97.30
3262;DHT22;1643;47.746;9.000;2023-04-03T09:45:36;8.70;97.30
3262;DHT22;1643;47.746;9.000;2023-04-03T09:53:40;8.80;97.30
3262;DHT22;1643;47.746;9.000;2023-04-03T09:58:46;8.90;97.10
3262;DHT22;1643;47.746;9.000;2023-04-03T10:04:13;8.90;96.90
3262;DHT22;1643;47.746;9.000;2023-04-03T10:09:25;9.00;96.60
3262;DHT22;1643;47.746;9.000;2023-04-03T10:12:00;9.20;96.50
3262;DHT22;1643;47.746;9.000;2023-04-03T10:14:30;9.20;96.30
3262;DHT22;1643;47.746;9.000;2023-04-03T10:17:37;9.20;96.40
3262;DHT22;1643;47.746;9.000;2023-04-03T10:23:05;9.30;96.40
3262;DHT22;1643;47.746;9.000;2023-04-03T10:31:18;9.00;96.60
3262;DHT22;1643;47.746;9.000;2023-04-03T10:36:46;9.20;96.50
3262;DHT22;1643;47.746;9.000;2023-04-03T10:56:30;9.50;96.50
3262;DHT22;1643;47.746;9.000;2023-04-03T11:01:30;9.60;96.30
3262;DHT22;1643;47.746;9.000;2023-04-03T11:03:58;9.60;96.40
3262;DHT22;1643;47.746;9.000;2023-04-03T11:06:27;9.70;96.40
3262;DHT22;1643;47.746;9.000;2023-04-03T11:11:27;9.60;96.00
3262;DHT22;1643;47.746;9.000;2023-04-03T11:14:01;9.50;95.70
3262;DHT22;1643;47.746;9.000;2023-04-03T11:16:30;9.50;95.90
3262;DHT22;1643;47.746;9.000;2023-04-03T11:19:10;9.60;96.00
3262;DHT22;1643;47.746;9.000;2023-04-03T11:21:46;9.70;95.90
3262;DHT22;1643;47.746;9.000;2023-04-03T11:24:25;9.60;95.90
3262;DHT22;1643;47.746;9.000;2023-04-03T11:26:54;9.50;95.90
3262;DHT22;1643;47.746;9.000;2023-04-03T11:29:23;9.40;96.00
3262;DHT22;1643;47.746;9.000;2023-04-03T11:34:39;9.60;96.00
3262;DHT22;1643;47.746;9.000;2023-04-03T11:37:31;9.40;95.70
3262;DHT22;1643;47.746;9.000;2023-04-03T11:42:53;9.50;96.30
3262;DHT22;1643;47.746;9.000;2023-04-03T11:47:57;10.20;95.60
3262;DHT22;1643;47.746;9.000;2023-04-03T12:16:28;9.60;95.80
3262;DHT22;1643;47.746;9.000;2023-04-03T12:24:27;9.60;95.70
3262;DHT22;1643;47.746;9.000;2023-04-03T12:32:55;9.60;95.20
3262;DHT22;1643;47.746;9.000;2023-04-03T12:35:34;9.50;95.30
3262;DHT22;1643;47.746;9.000;2023-04-03T12:40:58;9.20;95.30
3262;DHT22;1643;47.746;9.000;2023-04-03T12:46:20;9.30;95.20
3262;DHT22;1643;47.746;9.000;2023-04-03T12:48:53;9.50;95.20
3262;DHT22;1643;47.746;9.000;2023-04-03T12:51:28;9.60;95.00
3262;DHT22;1643;47.746;9.000;2023-04-03T12:54:02;9.60;94.90
3262;DHT22;1643;47.746;9.000;2023-04-03T12:56:30;9.70;94.90
3262;DHT22;1643;47.746;9.000;2023-04-03T13:01:39;10.00;94.10
3262;DHT22;1643;47.746;9.000;2023-04-03T13:04:05;10.00;93.90
3262;DHT22;1643;47.746;9.000;2023-04-03T13:06:39;9.90;94.20
3262;DHT22;1643;47.746;9.000;2023-04-03T13:09:14;9.80;94.40
3262;DHT22;1643;47.746;9.000;2023-04-03T13:11:44;9.90;94.40
3262;DHT22;1643;47.746;9.000;2023-04-03T13:14:19;9.90;94.20
3262;DHT22;1643;47.746;9.000;2023-04-03T13:16:58;10.00;93.60
3262;DHT22;1643;47.746;9.000;2023-04-03T13:19:25;9.90;94.00
3262;DHT22;1643;47.746;9.000;2023-04-03T13:22:01;9.90;94.10
3262;DHT22;1643;47.746;9.000;2023-04-03T13:24:29;10.00;93.70
3262;DHT22;1643;47.746;9.000;2023-04-03T13:26:57;10.10;93.80
3262;DHT22;1643;47.746;9.000;2023-04-03T13:29:29;10.10;93.80
3262;DHT22;1643;47.746;9.000;2023-04-03T13:31:56;10.20;94.00
3262;DHT22;1643;47.746;9.000;2023-04-03T13:34:25;10.30;94.00
3262;DHT22;1643;47.746;9.000;2023-04-03T13:39:27;10.40;93.90
3262;DHT22;1643;47.746;9.000;2023-04-03T13:41:56;10.50;93.90
3262;DHT22;1643;47.746;9.000;2023-04-03T13:47:16;10.00;93.70
3262;DHT22;1643;47.746;9.000;2023-04-03T13:49:59;10.10;93.90
3262;DHT22;1643;47.746;9.000;2023-04-03T13:52:29;10.10;93.80
3262;DHT22;1643;47.746;9.000;2023-04-03T13:54:59;10.10;93.70
3262;DHT22;1643;47.746;9.000;2023-04-03T13:57:26;9.90;94.20
3262;DHT22;1643;47.746;9.000;2023-04-03T13:59:52;10.00;93.60
3262;DHT22;1643;47.746;9.000;2023-04-03T14:02:22;10.20;93.50
3262;DHT22;1643;47.746;9.000;2023-04-03T14:04:57;10.20;93.40
3262;DHT22;1643;47.746;9.000;2023-04-03T14:07:26;10.00;93.60
3262;DHT22;1643;47.746;9.000;2023-04-03T14:09:52;9.80;94.00
3262;DHT22;1643;47.746;9.000;2023-04-03T14:12:35;9.90;94.10
3262;DHT22;1643;47.746;9.000;2023-04-03T14:15:04;10.10;93.50
3262;DHT22;1643;47.746;9.000;2023-04-03T14:17:30;10.20;93.40
3262;DHT22;1643;47.746;9.000;2023-04-03T14:19:57;10.30;93.40
3262;DHT22;1643;47.746;9.000;2023-04-03T14:22:31;10.30;93.30
3262;DHT22;1643;47.746;9.000;2023-04-03T14:24:57;10.30;93.40
3262;DHT22;1643;47.746;9.000;2023-04-03T14:27:33;10.30;93.30
3262;DHT22;1643;47.746;9.000;2023-04-03T14:30:06;10.20;93.10
3262;DHT22;1643;47.746;9.000;2023-04-03T14:32:32;10.10;92.90
3262;DHT22;1643;47.746;9.000;2023-04-03T14:34:58;10.00;92.80
3262;DHT22;1643;47.746;9.000;2023-04-03T14:37:26;10.10;92.70
3262;DHT22;1643;47.746;9.000;2023-04-03T14:39:54;10.20;92.60
3262;DHT22;1643;47.746;9.000;2023-04-03T14:42:23;10.20;92.50
3262;DHT22;1643;47.746;9.000;2023-04-03T14:44:49;10.20;92.40
3262;DHT22;1643;47.746;9.000;2023-04-03T14:47:19;10.00;92.30
3262;DHT22;1643;47.746;9.000;2023-04-03T14:49:46;9.90;92.90
3262;DHT22;1643;47.746;9.000;2023-04-03T14:52:33;10.00;92.30
3262;DHT22;1643;47.746;9.000;2023-04-03T14:55:00;10.10;92.40
3262;DHT22;1643;47.746;9.000;2023-04-03T14:57:28;10.20;92.40
3262;DHT22;1643;47.746;9.000;2023-04-03T14:59:54;10.20;92.30
3262;DHT22;1643;47.746;9.000;2023-04-03T15:02:29;10.30;92.20
3262;DHT22;1643;47.746;9.000;2023-04-03T15:04:56;10.00;91.90
3262;DHT22;1643;47.746;9.000;2023-04-03T15:07:24;9.80;92.70
3262;DHT22;1643;47.746;9.000;2023-04-03T15:09:50;9.80;92.70
3262;DHT22;1643;47.746;9.000;2023-04-03T15:12:16;9.70;92.70
3262;DHT22;1643;47.746;9.000;2023-04-03T15:14:42;9.50;92.70
3262;DHT22;1643;47.746;9.000;2023-04-03T15:17:15;9.60;92.80
3262;DHT22;1643;47.746;9.000;2023-04-03T15:19:42;9.70;92.90
3262;DHT22;1643;47.746;9.000;2023-04-03T15:22:14;9.80;92.90
3262;DHT22;1643;47.746;9.000;2023-04-03T15:24:40;9.90;93.30
3262;DHT22;1643;47.746;9.000;2023-04-03T15:27:06;9.90;92.90
3262;DHT22;1643;47.746;9.000;2023-04-03T15:29:32;9.90;93.00
3262;DHT22;1643;47.746;9.000;2023-04-03T15:31:57;9.90;93.00
3262;DHT22;1643;47.746;9.000;2023-04-03T15:34:23;9.90;93.10
3262;DHT22;1643;47.746;9.000;2023-04-03T15:36:49;9.90;93.10
3262;DHT22;1643;47.746;9.000;2023-04-03T15:39:17;10.00;92.60
3262;DHT22;1643;47.746;9.000;2023-04-03T15:41:44;10.00;92.70
3262;DHT22;1643;47.746;9.000;2023-04-03T15:44:10;10.00;92.70
3262;DHT22;1643;47.746;9.000;2023-04-03T15:46:37;10.00;92.70
3262;DHT22;1643;47.746;9.000;2023-04-03T15:49:04;9.90;93.30
3262;DHT22;1643;47.746;9.000;2023-04-03T15:51:31;9.90;93.30
3262;DHT22;1643;47.746;9.000;2023-04-03T15:53:57;9.90;93.30
3262;DHT22;1643;47.746;9.000;2023-04-03T15:56:22;9.80;93.30
3262;DHT22;1643;47.746;9.000;2023-04-03T15:58:48;9.70;93.20
3262;DHT22;1643;47.746;9.000;2023-04-03T16:01:13;9.70;93.10
3262;DHT22;1643;47.746;9.000;2023-04-03T16:03:41;9.60;93.00
3262;DHT22;1643;47.746;9.000;2023-04-03T16:06:14;9.60;93.10
3262;DHT22;1643;47.746;9.000;2023-04-03T16:08:41;9.50;93.50
3262;DHT22;1643;47.746;9.000;2023-04-03T16:11:06;9.50;93.20
3262;DHT22;1643;47.746;9.000;2023-04-03T16:13:32;9.40;93.20
3262;DHT22;1643;47.746;9.000;2023-04-03T16:15:59;9.40;93.20
3262;DHT22;1643;47.746;9.000;2023-04-03T16:18:25;9.30;93.30
3262;DHT22;1643;47.746;9.000;2023-04-03T16:20:51;9.20;93.50
3262;DHT22;1643;47.746;9.000;2023-04-03T16:23:17;9.10;93.50
3262;DHT22;1643;47.746;9.000;2023-04-03T16:25:43;9.00;93.50
3262;DHT22;1643;47.746;9.000;2023-04-03T16:28:15;8.80;93.40
3262;DHT22;1643;47.746;9.000;2023-04-03T16:30:41;8.90;93.50
3262;DHT22;1643;47.746;9.000;2023-04-03T16:33:09;9.00;93.60
3262;DHT22;1643;47.746;9.000;2023-04-03T16:35:35;9.00;93.60
3262;DHT22;1643;47.746;9.000;2023-04-03T16:38:01;8.90;93.50
3262;DHT22;1643;47.746;9.000;2023-04-03T16:40:26;8.80;93.60
3262;DHT22;1643;47.746;9.000;2023-04-03T16:42:52;8.90;93.40
3262;DHT22;1643;47.746;9.000;2023-04-03T16:45:18;8.80;93.40
3262;DHT22;1643;47.746;9.000;2023-04-03T16:47:43;8.90;93.40
3262;DHT22;1643;47.746;9.000;2023-04-03T16:50:10;8.90;93.30
3262;DHT22;1643;47.746;9.000;2023-04-03T16:52:36;8.80;93.20
3262;DHT22;1643;47.746;9.000;2023-04-03T16:55:01;8.70;93.30
3262;DHT22;1643;47.746;9.000;2023-04-03T16:57:27;8.70;93.30
3262;DHT22;1643;47.746;9.000;2023-04-03T16:59:53;8.70;93.00
3262;DHT22;1643;47.746;9.000;2023-04-03T17:02:23;8.60;93.10
3262;DHT22;1643;47.746;9.000;2023-04-03T17:04:54;8.70;93.20
3262;DHT22;1643;47.746;9.000;2023-04-03T17:07:21;8.60;93.00
3262;DHT22;1643;47.746;9.000;2023-04-03T17:09:47;8.60;93.10
3262;DHT22;1643;47.746;9.000;2023-04-03T17:12:13;8.70;93.20
3262;DHT22;1643;47.746;9.000;2023-04-03T17:14:40;8.70;93.10
3262;DHT22;1643;47.746;9.000;2023-04-03T17:17:06;8.70;93.10
3262;DHT22;1643;47.746;9.000;2023-04-03T17:19:33;8.70;93.10
3262;DHT22;1643;47.746;9.000;2023-04-03T17:21:59;8.70;93.10
3262;DHT22;1643;47.746;9.000;2023-04-03T17:24:25;8.60;92.90
3262;DHT22;1643;47.746;9.000;2023-04-03T17:26:51;8.50;92.90
3262;DHT22;1643;47.746;9.000;2023-04-03T17:29:16;8.50;93.00
3262;DHT22;1643;47.746;9.000;2023-04-03T17:31:42;8.50;92.90
3262;DHT22;1643;47.746;9.000;2023-04-03T17:34:08;8.40;92.90
3262;DHT22;1643;47.746;9.000;2023-04-03T17:36:36;8.50;92.90
3262;DHT22;1643;47.746;9.000;2023-04-03T17:39:02;8.30;92.90
3262;DHT22;1643;47.746;9.000;2023-04-03T17:41:29;8.20;93.00
3262;DHT22;1643;47.746;9.000;2023-04-03T17:43:55;8.10;93.10
3262;DHT22;1643;47.746;9.000;2023-04-03T17:46:22;8.00;93.30
3262;DHT22;1643;47.746;9.000;2023-04-03T17:48:48;7.80;93.50
3262;DHT22;1643;47.746;9.000;2023-04-03T17:51:17;7.90;93.10
3262;DHT22;1643;47.746;9.000;2023-04-03T17:53:43;8.00;93.10
3262;DHT22;1643;47.746;9.000;2023-04-03T17:56:11;8.10;93.00
3262;DHT22;1643;47.746;9.000;2023-04-03T17:58:37;8.10;92.90
3262;DHT22;1643;47.746;9.000;2023-04-03T18:01:22;8.10;93.00
3262;DHT22;1643;47.746;9.000;2023-04-03T18:03:51;8.20;93.00
3262;DHT22;1643;47.746;9.000;2023-04-03T18:06:19;8.10;93.00
3262;DHT22;1643;47.746;9.000;2023-04-03T18:08:50;8.00;93.00
3262;DHT22;1643;47.746;9.000;2023-04-03T18:11:17;7.90;93.10
3262;DHT22;1643;47.746;9.000;2023-04-03T18:13:44;7.90;93.20
3262;DHT22;1643;47.746;9.000;2023-04-03T18:16:11;7.80;93.20
3262;DHT22;1643;47.746;9.000;2023-04-03T18:18:38;7.70;93.10
3262;DHT22;1643;47.746;9.000;2023-04-03T18:21:05;7.70;93.20
3262;DHT22;1643;47.746;9.000;2023-04-03T18:23:33;7.70;92.90
3262;DHT22;1643;47.746;9.000;2023-04-03T18:26:00;7.60;92.70
3262;DHT22;1643;47.746;9.000;2023-04-03T18:28:27;7.60;92.60
3262;DHT22;1643;47.746;9.000;2023-04-03T18:30:53;7.50;92.60
3262;DHT22;1643;47.746;9.000;2023-04-03T18:33:19;7.50;92.40
3262;DHT22;1643;47.746;9.000;2023-04-03T18:35:45;7.40;92.50
3262;DHT22;1643;47.746;9.000;2023-04-03T18:38:10;7.30;92.50
3262;DHT22;1643;47.746;9.000;2023-04-03T18:40:36;7.20;92.60
3262;DHT22;1643;47.746;9.000;2023-04-03T18:43:02;7.30;92.70
3262;DHT22;1643;47.746;9.000;2023-04-03T18:45:28;7.30;92.60
3262;DHT22;1643;47.746;9.000;2023-04-03T18:47:54;7.30;92.50
3262;DHT22;1643;47.746;9.000;2023-04-03T18:50:21;7.30;92.60
3262;DHT22;1643;47.746;9.000;2023-04-03T18:52:46;7.20;92.50
3262;DHT22;1643;47.746;9.000;2023-04-03T18:55:16;7.20;92.60
3262;DHT22;1643;47.746;9.000;2023-04-03T18:57:44;7.30;92.60
3262;DHT22;1643;47.746;9.000;2023-04-03T19:00:11;7.30;92.60
3262;DHT22;1643;47.746;9.000;2023-04-03T19:02:37;7.40;92.60
3262;DHT22;1643;47.746;9.000;2023-04-03T19:05:03;7.50;92.60
3262;DHT22;1643;47.746;9.000;2023-04-03T19:07:29;7.60;92.60
3262;DHT22;1643;47.746;9.000;2023-04-03T19:09:55;7.60;92.60
3262;DHT22;1643;47.746;9.000;2023-04-03T19:12:23;7.70;92.60
3262;DHT22;1643;47.746;9.000;2023-04-03T19:14:50;7.60;92.60
3262;DHT22;1643;47.746;9.000;2023-04-03T19:17:16;7.70;92.50
3262;DHT22;1643;47.746;9.000;2023-04-03T19:19:41;7.60;92.40
3262;DHT22;1643;47.746;9.000;2023-04-03T19:22:07;7.60;92.20
3262;DHT22;1643;47.746;9.000;2023-04-03T19:24:33;7.50;92.20
3262;DHT22;1643;47.746;9.000;2023-04-03T19:26:59;7.50;92.10
3262;DHT22;1643;47.746;9.000;2023-04-03T19:29:24;7.50;92.00
3262;DHT22;1643;47.746;9.000;2023-04-03T19:31:50;7.50;91.90
3262;DHT22;1643;47.746;9.000;2023-04-03T19:34:17;7.50;91.90
3262;DHT22;1643;47.746;9.000;2023-04-03T19:36:45;7.50;91.80
3262;DHT22;1643;47.746;9.000;2023-04-03T19:39:11;7.50;91.80
3262;DHT22;1643;47.746;9.000;2023-04-03T19:41:39;7.40;91.60
3262;DHT22;1643;47.746;9.000;2023-04-03T19:44:06;7.40;91.60
3262;DHT22;1643;47.746;9.000;2023-04-03T19:46:33;7.30;91.60
3262;DHT22;1643;47.746;9.000;2023-04-03T19:48:59;7.30;91.60
3262;DHT22;1643;47.746;9.000;2023-04-03T19:51:25;7.10;91.50
3262;DHT22;1643;47.746;9.000;2023-04-03T19:53:51;7.00;91.50
3262;DHT22;1643;47.746;9.000;2023-04-03T19:56:17;7.00;91.50
3262;DHT22;1643;47.746;9.000;2023-04-03T19:58:45;7.00;91.40
3262;DHT22;1643;47.746;9.000;2023-04-03T20:01:18;7.00;91.40
3262;DHT22;1643;47.746;9.000;2023-04-03T20:03:44;7.00;91.60
3262;DHT22;1643;47.746;9.000;2023-04-03T20:06:10;6.90;91.10
3262;DHT22;1643;47.746;9.000;2023-04-03T20:08:36;6.80;91.00
3262;DHT22;1643;47.746;9.000;2023-04-03T20:11:01;6.70;91.10
3262;DHT22;1643;47.746;9.000;2023-04-03T20:13:27;6.70;91.00
3262;DHT22;1643;47.746;9.000;2023-04-03T20:15:53;6.70;90.80
3262;DHT22;1643;47.746;9.000;2023-04-03T20:18:19;6.70;90.80
3262;DHT22;1643;47.746;9.000;2023-04-03T20:20:56;6.60;90.70
3262;DHT22;1643;47.746;9.000;2023-04-03T20:23:23;6.60;90.60
3262;DHT22;1643;47.746;9.000;2023-04-03T20:25:49;6.50;90.70
3262;DHT22;1643;47.746;9.000;2023-04-03T20:28:16;6.50;90.60
3262;DHT22;1643;47.746;9.000;2023-04-03T20:30:45;6.50;90.50
3262;DHT22;1643;47.746;9.000;2023-04-03T20:33:12;6.40;90.10
3262;DHT22;1643;47.746;9.000;2023-04-03T20:35:37;6.50;90.20
3262;DHT22;1643;47.746;9.000;2023-04-03T20:38:03;6.60;90.00
3262;DHT22;1643;47.746;9.000;2023-04-03T20:40:32;6.50;89.90
3262;DHT22;1643;47.746;9.000;2023-04-03T20:42:57;6.30;90.00
3262;DHT22;1643;47.746;9.000;2023-04-03T20:45:23;6.40;90.00
3262;DHT22;1643;47.746;9.000;2023-04-03T20:47:49;6.30;90.00
3262;DHT22;1643;47.746;9.000;2023-04-03T20:50:16;6.30;90.30
3262;DHT22;1643;47.746;9.000;2023-04-03T20:52:43;6.20;89.90
3262;DHT22;1643;47.746;9.000;2023-04-03T20:55:09;6.20;89.70
3262;DHT22;1643;47.746;9.000;2023-04-03T20:57:35;6.20;89.80
3262;DHT22;1643;47.746;9.000;2023-04-03T21:00:02;6.20;89.80
3262;DHT22;1643;47.746;9.000;2023-04-03T21:02:33;6.10;89.50
3262;DHT22;1643;47.746;9.000;2023-04-03T21:04:59;6.00;89.70
3262;DHT22;1643;47.746;9.000;2023-04-03T21:19:19;5.70;89.50
3262;DHT22;1643;47.746;9.000;2023-04-03T21:21:45;5.80;89.40
3262;DHT22;1643;47.746;9.000;2023-04-03T21:24:12;5.70;89.30
3262;DHT22;1643;47.746;9.000;2023-04-03T21:26:39;5.70;89.30
3262;DHT22;1643;47.746;9.000;2023-04-03T21:29:05;5.70;89.80
3262;DHT22;1643;47.746;9.000;2023-04-03T21:31:56;5.60;89.00
3262;DHT22;1643;47.746;9.000;2023-04-03T21:34:26;5.60;88.90
3262;DHT22;1643;47.746;9.000;2023-04-03T21:36:54;5.60;89.20
3262;DHT22;1643;47.746;9.000;2023-04-03T21:39:20;5.60;89.00
3262;DHT22;1643;47.746;9.000;2023-04-03T21:41:48;5.60;89.10
3262;DHT22;1643;47.746;9.000;2023-04-03T21:44:13;5.40;89.00
3262;DHT22;1643;47.746;9.000;2023-04-03T21:46:39;5.40;89.40
3262;DHT22;1643;47.746;9.000;2023-04-03T21:49:05;5.40;89.30
3262;DHT22;1643;47.746;9.000;2023-04-03T21:51:32;5.50;89.50
3262;DHT22;1643;47.746;9.000;2023-04-03T21:53:58;5.50;89.20
3262;DHT22;1643;47.746;9.000;2023-04-03T21:56:24;5.60;89.10
3262;DHT22;1643;47.746;9.000;2023-04-03T21:58:50;5.50;88.70
3262;DHT22;1643;47.746;9.000;2023-04-03T22:01:17;5.60;89.00
3262;DHT22;1643;47.746;9.000;2023-04-03T22:03:44;5.70;88.80
3262;DHT22;1643;47.746;9.000;2023-04-03T22:06:11;5.70;88.50
3262;DHT22;1643;47.746;9.000;2023-04-03T22:08:37;5.70;88.30
3262;DHT22;1643;47.746;9.000;2023-04-03T22:11:05;5.70;88.50
3262;DHT22;1643;47.746;9.000;2023-04-03T22:13:31;5.70;88.60
3262;DHT22;1643;47.746;9.000;2023-04-03T22:15:57;5.70;88.50
3262;DHT22;1643;47.746;9.000;2023-04-03T22:18:24;5.70;88.90
3262;DHT22;1643;47.746;9.000;2023-04-03T22:20:50;5.70;88.80
3262;DHT22;1643;47.746;9.000;2023-04-03T22:23:16;5.60;88.90
3262;DHT22;1643;47.746;9.000;2023-04-03T22:25:41;5.70;89.00
3262;DHT22;1643;47.746;9.000;2023-04-03T22:28:07;5.70;88.90
3262;DHT22;1643;47.746;9.000;2023-04-03T22:30:32;5.80;89.00
3262;DHT22;1643;47.746;9.000;2023-04-03T22:32:58;5.70;88.90
3262;DHT22;1643;47.746;9.000;2023-04-03T22:35:24;5.50;89.20
3262;DHT22;1643;47.746;9.000;2023-04-03T22:37:50;5.50;89.20
3262;DHT22;1643;47.746;9.000;2023-04-03T22:40:16;5.50;89.30
3262;DHT22;1643;47.746;9.000;2023-04-03T22:42:45;5.50;89.40
3262;DHT22;1643;47.746;9.000;2023-04-03T22:45:12;5.40;89.30
3262;DHT22;1643;47.746;9.000;2023-04-03T22:47:37;5.30;89.20
3262;DHT22;1643;47.746;9.000;2023-04-03T22:50:03;5.20;89.20
3262;DHT22;1643;47.746;9.000;2023-04-03T22:52:29;5.20;89.60
3262;DHT22;1643;47.746;9.000;2023-04-03T22:54:54;5.20;89.50
3262;DHT22;1643;47.746;9.000;2023-04-03T22:57:20;5.20;89.70
3262;DHT22;1643;47.746;9.000;2023-04-03T22:59:46;5.20;89.80
3262;DHT22;1643;47.746;9.000;2023-04-03T23:02:11;5.10;90.00
3262;DHT22;1643;47.746;9.000;2023-04-03T23:04:37;5.20;90.00
3262;DHT22;1643;47.746;9.000;2023-04-03T23:07:02;5.20;90.00
3262;DHT22;1643;47.746;9.000;2023-04-03T23:09:28;5.20;90.00
3262;DHT22;1643;47.746;9.000;2023-04-03T23:11:53;5.00;90.10
3262;DHT22;1643;47.746;9.000;2023-04-03T23:14:19;5.00;90.10
3262;DHT22;1643;47.746;9.000;2023-04-03T23:16:46;4.90;90.10
3262;DHT22;1643;47.746;9.000;2023-04-03T23:19:11;4.90;90.20
3262;DHT22;1643;47.746;9.000;2023-04-03T23:21:37;4.90;90.30
3262;DHT22;1643;47.746;9.000;2023-04-03T23:24:03;4.80;90.40
3262;DHT22;1643;47.746;9.000;2023-04-03T23:26:29;4.90;90.40
3262;DHT22;1643;47.746;9.000;2023-04-03T23:28:55;4.90;90.50
3262;DHT22;1643;47.746;9.000;2023-04-03T23:31:20;4.90;90.50
3262;DHT22;1643;47.746;9.000;2023-04-03T23:33:47;4.90;90.50
3262;DHT22;1643;47.746;9.000;2023-04-03T23:36:12;4.90;90.90
3262;DHT22;1643;47.746;9.000;2023-04-03T23:38:40;4.90;90.70
3262;DHT22;1643;47.746;9.000;2023-04-03T23:41:06;4.90;90.70
3262;DHT22;1643;47.746;9.000;2023-04-03T23:43:32;4.80;90.70
3262;DHT22;1643;47.746;9.000;2023-04-03T23:45:58;4.60;90.90
3262;DHT22;1643;47.746;9.000;2023-04-03T23:48:23;4.40;91.00
3262;DHT22;1643;47.746;9.000;2023-04-03T23:50:49;4.50;91.50
3262;DHT22;1643;47.746;9.000;2023-04-03T23:53:15;4.60;91.20
3262;DHT22;1643;47.746;9.000;2023-04-03T23:55:41;4.60;91.20
3262;DHT22;1643;47.746;9.000;2023-04-03T23:58:07;4.60;91.20
